Portada
METAR-TAF:

METAR-TAF

Aeroports :

Metropolis Municipal Airport

Metropolis, Illinois, Estats Units d'Amèrica

latitud: 37-11-09N, longitud: 088-45-02W, altitud: 117 m

Observació

L'informe es va fer fa 39 minuts, a les 20:35 UTC
Vent calma
Temperatura 32°C
Humitat 41%
Pressió 1016 hPa
Visibilitat: 16.1 km
Núvols disperses a una alçada de 5500 ft
Cel ennuvolat a una alçada de 6500 ft
Cel ennuvolat a una alçada de 7500 ft

METAR: KM30 152035Z AUTO 00000KT 10SM SCT055 BKN065 BKN075 32/17 A2999 RMK AO2 T03210174

Hora: 16:14 (21:14 UTC)


TAF: manca

Observacions i pronòstics meteorològics de més de 4000 aeroports (METAR i TAF).

Les estacions disponibles són els punts grocs i vermells al mapa.

Posi el ratolí al punt desitjat per veure el nom de l'estació.

Feu clic per veure les observacions i els pronòstics meteorològics.

Per canviar el mapa: feu clic els botons verds amb una creu de color negre per apropar; al botó verd amb un guió per allunyar la imatge; o en les fletxes verdes per a mapes adjacents.


METAR-TAF: